OIMC  Sarakhs  Airport

Sarakhs, Iran

Add Bookmark
ICAO OIMC
IATA CKT
Type Airport
Status Operational
Latitude
36° 30' 4" N
36.501202
Longitude
61° 3' 53" E
61.064899
Local (DST + 5) UTC (GMT + 4)
Feb 6, 2016 12:25 Feb 6, 2016 08:55
Sunrise-Sunset Local UTC
Begin Civil Twilight 05:54 02:24
Sunrise 06:21 02:51
Sunset 04:57 13:27
End Civil Twilight 05:24 13:54
VFR
VFR
MVFR
MVFR
IFR
IFR
LIFR
LIFR
Unknown
Unavailable

Current Weather

METAR Observed MVFR
OIMC 060800Z 18029KT 7000 NSC 22/M01 Q1011 Sat, Feb 6, 2016 @ 08:00 UTC
(55 Minutes ago)
Marginal Visual Flight Rules
Wind Visibility Conditions
180° at 29 knots (54 kph) 7,001 m
  • No significant weather
Temperatures Readings Precipitation
Current Temp
22°C
72°F
Dewpoint
-1°C
30°F
Humidity 22%
Altimeter 29.85" Hg
Sea Level Pressure 1,011 mb
Field Elevation
288 m
945 ft
None Recorded
-
-

CheckWX.com is intended as a tool to help pilots better visualize weather data. It is not intended as a substitute for an official weather briefing obtained from a Flight Service Station. CheckWX.com does not meet the FAA requirements for an official pre-flight weather briefing. Therefore, it's important that pilots still call and obtain an official FSS pre-flight weather briefing.

© 2007-2016 CheckWX.com
08:55:16 UTC